Terminal Aerodrome Forecast
Issued by NWS

Home | Current Version | Previous Version | Text Only | Print | Product List | Glossary On
Versions: 1 2 3 4 5 6 7 8 9 10 11 12
000
FTUS42 TJSJ 281744
TAFNCM
TAF
TNCM 281744Z 2818/2918 18010KT P6SM VCSH FEW020 SCT030 SCT040
     FM282300 18006KT P6SM -SHRA SCT017 SCT020 SCT022
     FM291300 03009KT P6SM FEW025 SCT040=

USA.gov is the U.S. government's official web portal to all federal, state and local government web resources and services.